McCarran, Nevada
Current Conditions -  °F | °C
As of 4:55 PM on Tuesday 21 Oct 2014 (Local Time) from KRNO Reporting Station
Overcast Overcast  
Wind Chill: 62°   Ceiling: 20000
Heat Index: 62°   Visibility: 10mi
Dew Point: 22°   Wind: 10mph
Humidity: 21%   Direction: 10°N
Pressure: 30.03"   Gusts: NA
Location:  39.5403°N, 119.672°W
Report Text: KRNO 212355Z 01009KT 10SM FEW085 FEW140 BKN200 OVC250 17/M06 A3003 RMK AO2 SLP145 ACSL DSNT S T01671056 10172 20111 56009
Loading
Personal Weather Stations






























Interactive Weather Map New forecast layout! Learn more

10-Day Weather Forecast

Advertisements
Track Severe Weather on mobile